createdAt,value
2023-01-09T00:00:16.225Z,1.00
2023-01-09T00:00:39.389Z,1.00
2023-01-09T00:01:02.221Z,1.00
2023-01-09T00:01:27.799Z,1.00
2023-01-09T00:01:51.362Z,1.00
2023-01-09T00:02:16.366Z,1.00
2023-01-09T00:02:40.941Z,1.00
2023-01-09T00:03:06.025Z,1.00
2023-01-09T00:03:28.794Z,1.00
2023-01-09T00:03:51.682Z,1.00
2023-01-09T00:04:16.874Z,1.00
2023-01-09T00:04:39.649Z,1.00
2023-01-09T00:05:04.582Z,1.00
2023-01-09T00:05:30.064Z,1.00
2023-01-09T00:05:52.807Z,1.00
2023-01-09T00:06:17.888Z,1.00
2023-01-09T00:06:42.893Z,1.00
2023-01-09T00:07:05.735Z,1.00
2023-01-09T00:07:29.443Z,1.00
2023-01-09T00:07:54.557Z,1.00
2023-01-09T00:08:19.446Z,1.00
2023-01-09T00:08:42.211Z,1.00
2023-01-09T00:09:05.086Z,1.00
2023-01-09T00:09:27.849Z,1.00
2023-01-09T00:09:50.567Z,1.00
2023-01-09T00:10:15.744Z,1.00
2023-01-09T00:10:39.883Z,1.00
2023-01-09T00:11:02.556Z,1.00
2023-01-09T00:11:27.442Z,1.00
2023-01-09T00:11:50.119Z,1.00
2023-01-09T00:12:12.959Z,1.00
2023-01-09T00:12:35.704Z,1.00
2023-01-09T00:12:58.343Z,1.00
2023-01-09T00:13:23.498Z,1.00
2023-01-09T00:13:47.382Z,1.00
2023-01-09T00:14:11.142Z,1.00
2023-01-09T00:14:34.079Z,1.00
2023-01-09T00:15:00.017Z,1.00
2023-01-09T00:15:25.945Z,1.00
2023-01-09T00:15:49.083Z,1.00
2023-01-09T00:16:14.241Z,1.00
2023-01-09T00:16:39.477Z,1.00
2023-01-09T00:17:02.271Z,1.00
2023-01-09T00:17:25.023Z,1.00
2023-01-09T00:17:49.975Z,1.00
2023-01-09T00:18:12.805Z,1.00
2023-01-09T00:18:35.721Z,1.00
2023-01-09T00:18:58.482Z,1.00
2023-01-09T00:19:23.688Z,1.00
2023-01-09T00:19:46.662Z,1.00
2023-01-09T00:20:11.215Z,1.00
2023-01-09T00:20:36.074Z,1.00
2023-01-09T00:21:00.307Z,1.00
2023-01-09T00:21:23.132Z,1.00
2023-01-09T00:21:45.761Z,1.00
2023-01-09T00:22:09.768Z,1.00
2023-01-09T00:22:32.457Z,1.00
2023-01-09T00:22:57.372Z,1.00
2023-01-09T00:23:23.532Z,1.00
2023-01-09T00:23:48.464Z,1.00
2023-01-09T00:24:13.387Z,1.00
2023-01-09T00:24:38.641Z,1.00
2023-01-09T00:25:01.365Z,1.00
2023-01-09T00:25:24.096Z,1.00
2023-01-09T00:25:48.253Z,1.00
2023-01-09T00:26:11.934Z,1.00
2023-01-09T00:26:36.996Z,1.00
2023-01-09T00:26:59.742Z,1.00
2023-01-09T00:27:22.396Z,1.00
2023-01-09T00:27:48.071Z,1.00
2023-01-09T00:28:10.809Z,1.00
2023-01-09T00:28:35.806Z,1.00
2023-01-09T00:28:58.583Z,1.00
2023-01-09T00:29:21.309Z,1.00
2023-01-09T00:29:46.155Z,1.00
2023-01-09T00:30:10.944Z,1.00
2023-01-09T00:30:33.653Z,1.00
2023-01-09T00:30:59.426Z,1.00
2023-01-09T00:31:22.163Z,1.00
2023-01-09T00:31:44.971Z,1.00
2023-01-09T00:32:10.274Z,1.00
2023-01-09T00:32:32.939Z,1.00
2023-01-09T00:32:55.811Z,1.00
2023-01-09T00:33:19.441Z,1.00
2023-01-09T00:33:44.561Z,1.00
2023-01-09T00:34:10.496Z,1.00
2023-01-09T00:34:33.831Z,1.00
2023-01-09T00:34:58.757Z,1.00
2023-01-09T00:35:23.711Z,1.00
2023-01-09T00:35:46.392Z,1.00
2023-01-09T00:36:12.069Z,1.00
2023-01-09T00:36:34.817Z,1.00
2023-01-09T00:36:57.508Z,1.00
2023-01-09T00:37:21.228Z,1.00
2023-01-09T00:37:46.931Z,1.00
2023-01-09T00:38:09.597Z,1.00
2023-01-09T00:38:32.400Z,1.00
2023-01-09T00:38:57.468Z,1.00
2023-01-09T00:39:20.183Z,1.00
2023-01-09T00:39:42.989Z,1.00
2023-01-09T00:40:06.536Z,1.00
2023-01-09T00:40:29.293Z,1.00
2023-01-09T00:40:55.812Z,1.00
2023-01-09T00:41:20.326Z,1.00
2023-01-09T00:41:44.984Z,1.00
2023-01-09T00:42:08.341Z,1.00
2023-01-09T00:42:34.552Z,1.00
2023-01-09T00:42:57.537Z,1.00
2023-01-09T00:43:20.219Z,1.00
2023-01-09T00:43:47.937Z,1.00
2023-01-09T00:44:11.603Z,1.00
2023-01-09T00:44:39.420Z,1.00
2023-01-09T00:45:03.197Z,1.00
2023-01-09T00:45:29.481Z,4.90
2023-01-09T00:45:56.029Z,1.00
2023-01-09T00:46:19.406Z,1.00
2023-01-09T00:46:43.925Z,1.00
2023-01-09T00:47:13.733Z,1.00
2023-01-09T00:47:38.664Z,17.50
2023-01-09T00:48:04.157Z,4.30
2023-01-09T00:48:29.270Z,1.00
2023-01-09T00:48:51.998Z,1.00
2023-01-09T00:49:14.798Z,1.00
2023-01-09T00:49:37.526Z,9.20
2023-01-09T00:50:02.657Z,1.00
2023-01-09T00:50:28.266Z,1.00
2023-01-09T00:50:51.057Z,1.00
2023-01-09T00:51:16.806Z,1.00
2023-01-09T00:51:39.641Z,1.00
2023-01-09T00:52:02.313Z,1.00
2023-01-09T00:52:27.198Z,1.00
2023-01-09T00:52:50.066Z,3.70
2023-01-09T00:53:14.032Z,1.00
2023-01-09T00:53:40.032Z,1.00
2023-01-09T00:54:02.780Z,5.70
2023-01-09T00:54:27.710Z,1.00
2023-01-09T00:54:53.464Z,1.00
2023-01-09T00:55:16.275Z,1.00
2023-01-09T00:55:39.045Z,1.00
2023-01-09T00:56:05.316Z,1.00
2023-01-09T00:56:28.082Z,1.00
2023-01-09T00:56:52.961Z,1.00
2023-01-09T00:57:16.013Z,1.00
2023-01-09T00:57:38.731Z,2.40
2023-01-09T00:58:03.647Z,1.00
2023-01-09T00:58:26.378Z,3.50
2023-01-09T00:58:49.095Z,10.10
2023-01-09T00:59:13.998Z,1.00
2023-01-09T00:59:36.798Z,11.60
2023-01-09T01:00:02.019Z,5.40
2023-01-09T01:00:24.836Z,1.10
2023-01-09T01:00:47.682Z,2.90
2023-01-09T01:01:12.763Z,2.50
2023-01-09T01:01:35.994Z,6.30
2023-01-09T01:01:59.335Z,1.00
2023-01-09T01:02:24.670Z,3.50
2023-01-09T01:02:49.950Z,2.70
2023-01-09T01:03:15.282Z,1.00
2023-01-09T01:03:37.960Z,2.50
2023-01-09T01:04:20.711Z,1.00
2023-01-09T01:05:02.374Z,10.70
2023-01-09T01:05:43.473Z,15.90
2023-01-09T01:06:24.983Z,9.90
2023-01-09T01:07:06.370Z,18.80
2023-01-09T01:07:43.344Z,4.70
2023-01-09T01:08:11.189Z,4.90
2023-01-09T01:08:33.859Z,16.60
2023-01-09T01:08:56.658Z,12.60
2023-01-09T01:09:19.381Z,24.70
2023-01-09T01:09:42.105Z,47.10
2023-01-09T01:10:05.839Z,41.40
2023-01-09T01:10:28.546Z,46.80
2023-01-09T01:10:51.361Z,49.00
2023-01-09T01:11:15.536Z,60.70
2023-01-09T01:11:38.402Z,71.10
2023-01-09T01:12:01.924Z,61.20
2023-01-09T01:12:24.801Z,61.80
2023-01-09T01:12:47.786Z,56.60
2023-01-09T01:13:10.560Z,57.30
2023-01-09T01:13:33.283Z,51.90
2023-01-09T01:13:56.019Z,36.60
2023-01-09T01:14:20.975Z,44.00
2023-01-09T01:14:43.684Z,53.00
2023-01-09T01:15:07.964Z,41.40
2023-01-09T01:15:31.403Z,43.80
2023-01-09T01:15:54.189Z,46.00
2023-01-09T01:16:18.485Z,51.10
2023-01-09T01:16:41.389Z,57.90
2023-01-09T01:17:04.226Z,16.30
2023-01-09T01:17:27.037Z,16.50
2023-01-09T01:17:49.853Z,20.10
2023-01-09T01:18:13.929Z,22.30
2023-01-09T01:18:39.200Z,21.10
2023-01-09T01:19:01.926Z,21.50
2023-01-09T01:19:24.970Z,19.90
2023-01-09T01:19:47.801Z,27.80
2023-01-09T01:20:12.875Z,20.00
2023-01-09T01:20:35.595Z,26.60
2023-01-09T01:20:58.399Z,32.30
2023-01-09T01:21:21.171Z,34.50
2023-01-09T01:21:43.840Z,25.10
2023-01-09T01:22:06.560Z,15.90
2023-01-09T01:22:29.304Z,21.80
2023-01-09T01:22:51.997Z,1.00
2023-01-09T01:23:14.730Z,7.20
2023-01-09T01:23:39.655Z,9.60
2023-01-09T01:24:02.411Z,12.90
2023-01-09T01:24:25.146Z,15.70
2023-01-09T01:24:50.401Z,21.30
2023-01-09T01:25:16.646Z,8.90
2023-01-09T01:25:39.427Z,5.10
2023-01-09T01:26:05.290Z,3.90
2023-01-09T01:26:29.325Z,1.00
2023-01-09T01:26:55.501Z,1.80
2023-01-09T01:27:18.237Z,1.00
2023-01-09T01:27:41.085Z,1.00
2023-01-09T01:28:06.504Z,7.10
2023-01-09T01:28:29.266Z,7.60
2023-01-09T01:28:54.132Z,1.00
2023-01-09T01:29:16.865Z,1.00
2023-01-09T01:29:39.601Z,12.10
2023-01-09T01:30:02.325Z,20.90
2023-01-09T01:30:27.462Z,3.30
2023-01-09T01:30:50.299Z,9.10
2023-01-09T01:31:20.089Z,8.70
2023-01-09T01:31:42.843Z,9.60
2023-01-09T01:32:05.625Z,9.90
2023-01-09T01:32:30.560Z,15.30
2023-01-09T01:32:53.316Z,21.70
2023-01-09T01:33:16.031Z,31.70
2023-01-09T01:33:38.738Z,34.10
2023-01-09T01:34:01.485Z,34.50
2023-01-09T01:34:24.174Z,29.40
2023-01-09T01:34:47.761Z,36.10
2023-01-09T01:35:11.421Z,40.50
2023-01-09T01:35:34.232Z,42.00
2023-01-09T01:36:01.448Z,25.80
2023-01-09T01:36:24.210Z,27.70
2023-01-09T01:36:49.196Z,24.70
2023-01-09T01:37:11.960Z,21.80
2023-01-09T01:37:37.116Z,29.60
2023-01-09T01:37:59.815Z,34.10
2023-01-09T01:38:22.541Z,23.30
2023-01-09T01:38:47.010Z,15.90
2023-01-09T01:39:09.931Z,22.00
2023-01-09T01:39:32.701Z,17.70
2023-01-09T01:39:55.357Z,37.40
2023-01-09T01:40:19.296Z,39.30
2023-01-09T01:40:42.039Z,39.90
2023-01-09T01:41:04.862Z,74.80
2023-01-09T01:41:31.645Z,62.30
2023-01-09T01:41:54.407Z,66.70
2023-01-09T01:42:18.265Z,64.50
2023-01-09T01:42:46.879Z,53.70
2023-01-09T01:43:09.850Z,57.20
2023-01-09T01:43:51.023Z,78.40
2023-01-09T01:44:46.653Z,55.40
2023-01-09T01:45:10.905Z,42.70
2023-01-09T01:45:34.623Z,41.90
2023-01-09T01:45:57.327Z,38.30
2023-01-09T01:46:20.165Z,35.00
2023-01-09T01:46:42.986Z,42.50
2023-01-09T01:47:05.682Z,29.50
2023-01-09T01:47:41.130Z,28.80
2023-01-09T01:48:06.125Z,25.40
2023-01-09T01:48:29.682Z,39.10
2023-01-09T01:48:54.095Z,24.70
2023-01-09T01:49:20.497Z,25.10
2023-01-09T01:49:43.238Z,33.90
2023-01-09T01:50:12.960Z,33.50
2023-01-09T01:50:37.447Z,39.00
2023-01-09T01:51:01.418Z,45.40
2023-01-09T01:51:25.138Z,40.40
2023-01-09T01:51:49.782Z,43.00
2023-01-09T01:52:12.479Z,71.00
2023-01-09T01:52:35.227Z,32.20
2023-01-09T01:53:02.631Z,39.10
2023-01-09T01:53:26.832Z,45.20
2023-01-09T01:53:51.045Z,23.10
2023-01-09T01:54:15.114Z,22.70
2023-01-09T01:54:37.812Z,26.60
2023-01-09T01:55:00.506Z,28.70
2023-01-09T01:55:23.215Z,27.00
2023-01-09T01:55:49.702Z,16.10
2023-01-09T01:56:17.340Z,30.70
2023-01-09T01:56:43.521Z,24.20
2023-01-09T01:57:06.215Z,20.50
2023-01-09T01:57:28.886Z,16.70
2023-01-09T01:57:55.160Z,17.10
2023-01-09T01:58:17.817Z,27.00
2023-01-09T01:58:44.965Z,20.30
2023-01-09T01:59:10.565Z,24.70
2023-01-09T01:59:36.645Z,53.50
2023-01-09T02:00:00.239Z,38.80
2023-01-09T02:00:24.420Z,35.90
2023-01-09T02:00:47.446Z,27.20
2023-01-09T02:01:10.266Z,14.80
2023-01-09T02:01:34.041Z,27.50
2023-01-09T02:01:59.590Z,20.20
2023-01-09T02:02:25.665Z,34.20
2023-01-09T02:02:48.537Z,32.60
2023-01-09T02:03:11.290Z,42.00
2023-01-09T02:03:36.303Z,33.80
2023-01-09T02:03:59.268Z,41.90
2023-01-09T02:04:21.965Z,42.20
2023-01-09T02:04:44.758Z,29.70
2023-01-09T02:05:08.000Z,29.70
2023-01-09T02:05:30.758Z,29.20
2023-01-09T02:05:53.456Z,36.50
2023-01-09T02:06:17.216Z,24.50
2023-01-09T02:06:39.955Z,28.70
2023-01-09T02:07:03.615Z,20.80
2023-01-09T02:07:26.343Z,19.50
2023-01-09T02:07:52.081Z,9.60
2023-01-09T02:08:14.849Z,11.10
2023-01-09T02:08:37.697Z,3.60
2023-01-09T02:09:00.591Z,8.00
2023-01-09T02:09:25.760Z,13.80
2023-01-09T02:09:48.669Z,12.50
2023-01-09T02:10:11.381Z,6.40
2023-01-09T02:10:34.391Z,12.20
2023-01-09T02:10:57.133Z,72.30
2023-01-09T02:11:20.641Z,51.50
2023-01-09T02:11:46.634Z,48.50
2023-01-09T02:12:16.810Z,45.20
2023-01-09T02:12:39.517Z,41.80
2023-01-09T02:13:05.295Z,54.30
2023-01-09T02:13:27.911Z,55.00
2023-01-09T02:13:50.689Z,55.70
2023-01-09T02:14:16.245Z,58.40
2023-01-09T02:14:38.936Z,58.40
2023-01-09T02:15:06.492Z,86.60
2023-01-09T02:15:30.442Z,93.30
2023-01-09T02:16:02.161Z,92.80
2023-01-09T02:16:32.403Z,78.70
2023-01-09T02:16:57.695Z,99.90
2023-01-09T02:17:34.715Z,99.90
2023-01-09T02:18:08.041Z,78.50
2023-01-09T02:18:41.797Z,96.70
2023-01-09T02:19:10.465Z,99.90
2023-01-09T02:19:54.405Z,99.90
2023-01-09T02:20:43.449Z,99.90
2023-01-09T02:21:07.521Z,99.90
2023-01-09T02:21:37.197Z,99.90
2023-01-09T02:22:04.783Z,99.90
2023-01-09T02:22:32.958Z,99.90
2023-01-09T02:23:00.906Z,99.90
2023-01-09T02:23:55.968Z,99.90
2023-01-09T02:24:36.648Z,99.90
2023-01-09T02:25:37.991Z,99.90
2023-01-09T02:26:16.956Z,99.90
2023-01-09T02:27:15.502Z,99.90
2023-01-09T02:27:54.255Z,99.90
2023-01-09T02:28:42.660Z,99.90
2023-01-09T02:29:59.255Z,99.90
2023-01-09T02:30:33.171Z,99.90
2023-01-09T02:30:56.584Z,99.90
2023-01-09T02:31:20.994Z,99.90
2023-01-09T02:31:45.970Z,99.90
2023-01-09T02:32:12.006Z,99.90
2023-01-09T02:32:53.532Z,99.90
2023-01-09T02:33:31.535Z,99.90
2023-01-09T02:33:55.407Z,99.90
2023-01-09T02:34:21.743Z,99.90
2023-01-09T02:34:47.526Z,99.90
2023-01-09T02:35:18.025Z,99.90
2023-01-09T02:35:53.915Z,99.90
2023-01-09T02:36:24.904Z,99.90
2023-01-09T02:36:50.237Z,99.90
2023-01-09T02:37:16.818Z,99.90
2023-01-09T02:37:43.396Z,99.90
2023-01-09T02:38:12.770Z,99.90
2023-01-09T02:38:39.386Z,99.90
2023-01-09T02:39:16.045Z,99.90
2023-01-09T02:39:42.256Z,99.90
2023-01-09T02:40:08.235Z,99.90
2023-01-09T02:40:33.607Z,99.90
2023-01-09T02:40:59.044Z,99.90
2023-01-09T02:41:24.215Z,99.90
2023-01-09T02:41:49.201Z,99.90
2023-01-09T02:42:14.875Z,99.90
2023-01-09T02:42:37.822Z,99.90
2023-01-09T02:43:03.484Z,99.90
2023-01-09T02:43:26.365Z,99.90
2023-01-09T02:43:49.102Z,99.90
2023-01-09T02:44:26.586Z,99.90
2023-01-09T02:44:49.318Z,99.90
2023-01-09T02:45:12.008Z,99.90
2023-01-09T02:45:36.280Z,99.90
2023-01-09T02:46:00.223Z,99.90
2023-01-09T02:46:23.155Z,99.90
2023-01-09T02:46:45.871Z,99.90
2023-01-09T02:47:24.261Z,99.90
2023-01-09T02:47:47.141Z,99.90
2023-01-09T02:48:11.352Z,99.90
2023-01-09T02:48:34.093Z,99.90
2023-01-09T02:48:56.808Z,99.90
2023-01-09T02:49:19.516Z,99.90
2023-01-09T02:49:44.005Z,99.90
2023-01-09T02:50:10.241Z,99.90
2023-01-09T02:50:36.540Z,99.90
2023-01-09T02:51:06.854Z,99.90
2023-01-09T02:51:33.946Z,99.90
2023-01-09T02:52:02.096Z,99.90
2023-01-09T02:52:30.175Z,99.90
2023-01-09T02:53:15.206Z,99.90
2023-01-09T02:53:53.950Z,99.90
2023-01-09T02:54:24.672Z,99.90
2023-01-09T02:54:51.962Z,99.90
2023-01-09T02:55:18.802Z,99.90
2023-01-09T02:55:51.861Z,99.90
2023-01-09T02:56:34.561Z,99.90
2023-01-09T02:57:17.121Z,99.90
2023-01-09T02:57:47.967Z,99.90
2023-01-09T02:58:12.164Z,99.90
2023-01-09T02:58:50.733Z,99.90
2023-01-09T02:59:22.301Z,99.90
2023-01-09T02:59:54.155Z,1.00
2023-01-09T03:00:25.618Z,1.00
2023-01-09T03:00:58.702Z,1.00
2023-01-09T03:01:25.744Z,1.00
2023-01-09T03:02:15.143Z,1.00
2023-01-09T03:02:42.899Z,1.00
2023-01-09T03:03:09.170Z,1.00
2023-01-09T03:03:35.455Z,1.00
2023-01-09T03:04:02.098Z,1.00
2023-01-09T03:04:36.482Z,1.00
2023-01-09T03:05:01.801Z,1.00
2023-01-09T03:05:28.978Z,1.00
2023-01-09T03:05:53.588Z,1.00
2023-01-09T03:06:18.592Z,1.00
2023-01-09T03:06:45.082Z,1.00
2023-01-09T03:07:10.094Z,1.00
2023-01-09T03:07:35.126Z,1.00
2023-01-09T03:08:00.022Z,1.00
2023-01-09T03:08:24.989Z,1.00
2023-01-09T03:08:50.407Z,1.00
2023-01-09T03:09:15.582Z,1.00
2023-01-09T03:09:39.701Z,1.00
2023-01-09T03:10:09.281Z,1.00
2023-01-09T03:10:35.246Z,1.00
2023-01-09T03:11:00.218Z,1.00
2023-01-09T03:11:22.893Z,1.00
2023-01-09T03:11:50.910Z,1.00
2023-01-09T03:12:17.810Z,1.00
2023-01-09T03:12:40.524Z,1.00
2023-01-09T03:13:06.343Z,1.00
2023-01-09T03:13:31.194Z,1.00
2023-01-09T03:13:55.203Z,1.00
2023-01-09T03:14:19.820Z,1.00
2023-01-09T03:14:45.277Z,1.00
2023-01-09T03:15:08.697Z,1.00
2023-01-09T03:15:33.876Z,1.00
2023-01-09T03:15:58.140Z,1.00
2023-01-09T03:16:22.300Z,1.00
2023-01-09T03:16:46.160Z,1.00
2023-01-09T03:17:12.006Z,1.00
2023-01-09T03:17:37.472Z,1.00
2023-01-09T03:18:00.165Z,1.00
2023-01-09T03:18:24.997Z,69.80
2023-01-09T03:18:47.803Z,99.90
2023-01-09T03:19:13.338Z,99.90
2023-01-09T03:19:36.102Z,99.90
2023-01-09T03:19:58.901Z,99.90
2023-01-09T03:20:23.031Z,99.90
2023-01-09T03:20:45.763Z,99.90
2023-01-09T03:21:08.456Z,99.90
2023-01-09T03:21:31.145Z,99.90
2023-01-09T03:21:53.956Z,99.90
2023-01-09T03:22:16.758Z,99.90
2023-01-09T03:22:40.192Z,86.50
2023-01-09T03:23:04.341Z,63.50
2023-01-09T03:23:27.046Z,6.00
2023-01-09T03:23:51.051Z,1.00
2023-01-09T03:24:13.765Z,1.00
2023-01-09T03:24:38.959Z,1.00
2023-01-09T03:25:01.696Z,1.00
2023-01-09T03:25:27.159Z,1.00
2023-01-09T03:25:49.930Z,1.00
2023-01-09T03:26:12.677Z,1.00
2023-01-09T03:26:37.606Z,1.00
2023-01-09T03:27:02.804Z,1.00
2023-01-09T03:27:25.622Z,1.00
2023-01-09T03:27:48.631Z,1.00
2023-01-09T03:28:25.350Z,1.00
2023-01-09T03:28:48.224Z,1.00
2023-01-09T03:29:11.026Z,1.00
2023-01-09T03:29:35.927Z,1.00
2023-01-09T03:29:58.633Z,1.00
2023-01-09T03:30:23.837Z,1.00
2023-01-09T03:30:49.120Z,1.00
2023-01-09T03:31:16.524Z,6.40
2023-01-09T03:31:39.320Z,9.30
2023-01-09T03:32:02.149Z,21.50
2023-01-09T03:32:25.287Z,32.10
2023-01-09T03:32:47.999Z,44.30
2023-01-09T03:33:10.947Z,99.90
2023-01-09T03:33:33.657Z,99.90
2023-01-09T03:33:56.364Z,98.50
2023-01-09T03:34:21.248Z,74.70
2023-01-09T03:34:43.986Z,79.50
2023-01-09T03:35:07.348Z,91.20
2023-01-09T03:35:30.075Z,98.90
2023-01-09T03:35:52.810Z,99.90
2023-01-09T03:36:16.666Z,99.90
2023-01-09T03:36:39.866Z,99.90
2023-01-09T03:37:05.010Z,99.90
2023-01-09T03:37:27.843Z,99.90
2023-01-09T03:37:51.841Z,99.90
2023-01-09T03:38:14.516Z,99.90
2023-01-09T03:38:37.345Z,99.90
2023-01-09T03:39:00.101Z,99.90
2023-01-09T03:39:22.812Z,99.90
2023-01-09T03:39:47.677Z,99.90
2023-01-09T03:40:11.367Z,99.90
2023-01-09T03:40:34.113Z,99.90
2023-01-09T03:40:56.947Z,99.90
2023-01-09T03:41:19.857Z,99.90
2023-01-09T03:41:42.623Z,99.90
2023-01-09T03:42:05.666Z,99.90
2023-01-09T03:42:28.423Z,99.90
2023-01-09T03:42:51.178Z,99.90
2023-01-09T03:43:13.876Z,49.60
2023-01-09T03:43:38.882Z,46.90
2023-01-09T03:44:01.638Z,40.40
2023-01-09T03:44:24.482Z,48.20
2023-01-09T03:44:47.282Z,82.20
2023-01-09T03:45:10.906Z,87.40
2023-01-09T03:45:33.720Z,99.90
2023-01-09T03:45:56.660Z,99.90
2023-01-09T03:46:20.800Z,99.90
2023-01-09T03:46:43.531Z,65.60
2023-01-09T03:47:06.235Z,55.00
2023-01-09T03:47:28.949Z,8.90
2023-01-09T03:47:53.887Z,8.90
2023-01-09T03:48:19.679Z,1.00
2023-01-09T03:48:45.523Z,1.00
2023-01-09T03:49:08.323Z,1.00
2023-01-09T03:49:31.137Z,1.00
2023-01-09T03:49:53.903Z,1.00
2023-01-09T03:50:16.839Z,1.00
2023-01-09T03:50:42.607Z,1.00
2023-01-09T03:51:05.621Z,1.00
2023-01-09T03:51:31.332Z,1.00
2023-01-09T03:51:55.203Z,1.00
2023-01-09T03:52:17.920Z,1.00
2023-01-09T03:52:42.988Z,1.00
2023-01-09T03:53:05.719Z,1.00
2023-01-09T03:53:28.803Z,1.00
2023-01-09T03:53:54.033Z,1.00
2023-01-09T03:54:16.697Z,1.00
2023-01-09T03:54:41.603Z,1.00
2023-01-09T03:55:05.291Z,1.00
2023-01-09T03:55:28.134Z,1.00
2023-01-09T03:55:51.766Z,1.00
2023-01-09T03:56:16.636Z,1.00
2023-01-09T03:56:39.362Z,1.00
2023-01-09T03:57:04.287Z,1.00
2023-01-09T03:57:27.036Z,1.00
2023-01-09T03:57:50.281Z,1.00
2023-01-09T03:58:13.073Z,1.00
2023-01-09T03:58:38.215Z,1.00
2023-01-09T03:59:00.963Z,1.00
2023-01-09T03:59:25.924Z,1.00
2023-01-09T03:59:48.676Z,1.00
2023-01-09T04:00:15.764Z,1.00
2023-01-09T04:00:40.972Z,1.00
2023-01-09T04:01:05.202Z,1.00
2023-01-09T04:01:29.881Z,1.00
2023-01-09T04:01:52.739Z,1.00
2023-01-09T04:02:18.646Z,1.00
2023-01-09T04:02:41.436Z,1.00
2023-01-09T04:03:04.211Z,1.00
2023-01-09T04:03:29.509Z,1.00
2023-01-09T04:03:54.807Z,1.00
2023-01-09T04:04:19.952Z,1.00
2023-01-09T04:04:42.603Z,1.00
2023-01-09T04:05:06.894Z,1.00
2023-01-09T04:05:29.760Z,1.00
2023-01-09T04:05:52.605Z,1.00
2023-01-09T04:06:20.335Z,1.00
2023-01-09T04:06:43.051Z,1.00
2023-01-09T04:07:05.800Z,1.00
2023-01-09T04:07:28.557Z,1.00
2023-01-09T04:07:54.270Z,1.00
2023-01-09T04:08:17.102Z,1.00
2023-01-09T04:08:42.258Z,1.00
2023-01-09T04:09:05.069Z,1.00
2023-01-09T04:09:27.802Z,1.00
2023-01-09T04:09:50.525Z,1.00
2023-01-09T04:10:13.308Z,1.00
2023-01-09T04:10:36.183Z,1.00
2023-01-09T04:10:58.958Z,1.00
2023-01-09T04:11:22.660Z,1.00
2023-01-09T04:11:45.448Z,1.00
2023-01-09T04:12:10.397Z,1.00
2023-01-09T04:12:33.119Z,1.00
2023-01-09T04:12:58.029Z,1.00
2023-01-09T04:13:20.742Z,1.00
2023-01-09T04:13:45.958Z,1.00
2023-01-09T04:14:08.730Z,1.00
2023-01-09T04:14:33.950Z,1.00
2023-01-09T04:14:56.668Z,1.00
2023-01-09T04:15:23.444Z,1.00
2023-01-09T04:15:46.157Z,1.00
2023-01-09T04:16:09.019Z,1.00
2023-01-09T04:16:33.245Z,1.00
2023-01-09T04:16:58.160Z,1.00
2023-01-09T04:17:20.885Z,1.00
2023-01-09T04:17:45.858Z,1.00
2023-01-09T04:18:10.749Z,1.00
2023-01-09T04:18:33.454Z,1.00
2023-01-09T04:18:58.627Z,1.00
2023-01-09T04:19:21.283Z,1.00
2023-01-09T04:19:46.278Z,1.00
2023-01-09T04:20:12.914Z,1.00
2023-01-09T04:20:35.720Z,1.00
2023-01-09T04:20:58.448Z,1.00
2023-01-09T04:21:24.160Z,1.00
2023-01-09T04:21:46.916Z,1.00
2023-01-09T04:22:09.676Z,1.00
2023-01-09T04:22:32.428Z,1.00
2023-01-09T04:22:55.838Z,1.00
2023-01-09T04:23:20.710Z,1.00
2023-01-09T04:23:46.502Z,1.00
2023-01-09T04:24:09.404Z,1.00
2023-01-09T04:24:32.494Z,1.00
2023-01-09T04:24:57.455Z,1.00
2023-01-09T04:25:20.192Z,1.00
2023-01-09T04:25:45.503Z,1.00
2023-01-09T04:26:08.317Z,1.00
2023-01-09T04:26:31.094Z,1.00
2023-01-09T04:26:56.817Z,1.00
2023-01-09T04:27:19.524Z,1.00
2023-01-09T04:27:44.449Z,1.00
2023-01-09T04:28:09.744Z,1.00
2023-01-09T04:28:32.691Z,1.00
2023-01-09T04:28:57.569Z,1.00
2023-01-09T04:29:22.688Z,1.00
2023-01-09T04:29:47.855Z,1.00
2023-01-09T04:30:12.167Z,1.00
2023-01-09T04:30:37.831Z,1.00
2023-01-09T04:31:03.054Z,1.00
2023-01-09T04:31:25.826Z,1.00
2023-01-09T04:31:50.008Z,1.00
2023-01-09T04:32:12.987Z,1.00
2023-01-09T04:32:35.685Z,1.00
2023-01-09T04:33:00.647Z,1.00
2023-01-09T04:33:23.358Z,1.00
2023-01-09T04:33:46.166Z,1.00
2023-01-09T04:34:11.358Z,1.00
2023-01-09T04:34:36.632Z,1.00
2023-01-09T04:35:01.613Z,1.00
2023-01-09T04:35:26.842Z,1.00
2023-01-09T04:35:49.611Z,1.00
2023-01-09T04:36:15.198Z,1.00
2023-01-09T04:36:40.139Z,1.00
2023-01-09T04:37:03.230Z,1.00
2023-01-09T04:37:26.095Z,1.00
2023-01-09T04:37:48.875Z,1.00
2023-01-09T04:38:13.821Z,1.00
2023-01-09T04:38:36.646Z,1.00
2023-01-09T04:39:02.177Z,1.00
2023-01-09T04:39:24.908Z,1.00
2023-01-09T04:39:47.763Z,1.00
2023-01-09T04:40:12.637Z,1.00
2023-01-09T04:40:35.333Z,1.00
2023-01-09T04:41:00.231Z,1.00
2023-01-09T04:41:41.522Z,1.00
2023-01-09T04:42:04.411Z,1.00
2023-01-09T04:42:27.354Z,1.00
2023-01-09T04:42:52.314Z,1.00
2023-01-09T04:43:15.047Z,1.00
2023-01-09T04:43:37.899Z,1.00
2023-01-09T04:44:03.131Z,1.00
2023-01-09T04:44:31.287Z,1.00
2023-01-09T04:44:54.280Z,1.00
2023-01-09T04:45:17.638Z,1.00
2023-01-09T04:45:42.860Z,1.00
2023-01-09T04:46:08.219Z,1.00
2023-01-09T04:46:33.463Z,1.00
2023-01-09T04:47:02.533Z,1.00
2023-01-09T04:47:25.287Z,1.00
2023-01-09T04:47:50.529Z,1.00
2023-01-09T04:48:15.773Z,1.00
2023-01-09T04:48:38.538Z,1.00
2023-01-09T04:49:03.792Z,1.00
2023-01-09T04:49:26.548Z,1.00
2023-01-09T04:49:52.269Z,1.00
2023-01-09T04:50:15.040Z,1.00
2023-01-09T04:50:37.956Z,1.00
2023-01-09T04:51:03.238Z,1.00
2023-01-09T04:51:26.004Z,1.00
2023-01-09T04:51:51.701Z,1.00
2023-01-09T04:52:17.675Z,1.00
2023-01-09T04:52:40.532Z,1.00
2023-01-09T04:53:03.412Z,1.00
2023-01-09T04:53:28.654Z,1.00
2023-01-09T04:53:51.459Z,1.00
2023-01-09T04:54:14.323Z,1.00
2023-01-09T04:54:39.567Z,1.00
2023-01-09T04:55:02.330Z,1.00
2023-01-09T04:55:27.269Z,1.00
2023-01-09T04:55:52.206Z,1.00
2023-01-09T04:56:14.885Z,1.00
2023-01-09T04:56:37.708Z,1.00
2023-01-09T04:57:02.682Z,1.00
2023-01-09T04:57:26.565Z,1.00
2023-01-09T04:57:51.839Z,1.00
2023-01-09T04:58:14.569Z,1.00
2023-01-09T04:58:39.724Z,1.00
2023-01-09T04:59:02.578Z,1.00
2023-01-09T04:59:25.387Z,1.00
2023-01-09T04:59:52.115Z,1.00
2023-01-09T05:00:16.179Z,1.00
2023-01-09T05:00:39.053Z,1.00
2023-01-09T05:01:04.224Z,1.00
2023-01-09T05:01:28.254Z,1.00
2023-01-09T05:01:53.789Z,1.00
2023-01-09T05:02:18.087Z,1.00
2023-01-09T05:02:43.132Z,1.00
2023-01-09T05:03:05.778Z,1.00
2023-01-09T05:03:28.537Z,1.00
2023-01-09T05:03:51.301Z,1.00
2023-01-09T05:04:14.620Z,1.00
2023-01-09T05:04:39.599Z,1.00
2023-01-09T05:05:02.404Z,1.00
2023-01-09T05:05:25.153Z,1.00
2023-01-09T05:05:50.139Z,1.00
2023-01-09T05:06:12.890Z,1.00
2023-01-09T05:06:38.594Z,1.00
2023-01-09T05:07:03.686Z,1.00
2023-01-09T05:07:26.354Z,1.00
2023-01-09T05:07:49.009Z,1.00
2023-01-09T05:08:11.782Z,1.00
2023-01-09T05:08:34.497Z,1.00
2023-01-09T05:09:00.433Z,1.00
2023-01-09T05:09:23.326Z,1.00
2023-01-09T05:09:46.138Z,1.00
2023-01-09T05:10:10.892Z,1.00
2023-01-09T05:10:33.822Z,1.00
2023-01-09T05:11:01.601Z,1.00
2023-01-09T05:11:25.683Z,1.00
2023-01-09T05:11:48.420Z,1.00
2023-01-09T05:12:11.033Z,1.00
2023-01-09T05:12:36.385Z,1.00
2023-01-09T05:12:59.202Z,1.00
2023-01-09T05:13:24.655Z,1.00
2023-01-09T05:13:47.397Z,1.00
2023-01-09T05:14:10.127Z,1.00
2023-01-09T05:14:32.875Z,1.00
2023-01-09T05:14:57.865Z,1.00
2023-01-09T05:15:21.133Z,1.00
2023-01-09T05:15:43.822Z,1.00
2023-01-09T05:16:07.578Z,1.00
2023-01-09T05:16:33.156Z,1.00
2023-01-09T05:16:56.571Z,1.00
2023-01-09T05:17:20.741Z,1.00
2023-01-09T05:17:46.248Z,1.00
2023-01-09T05:18:09.044Z,1.00
2023-01-09T05:18:31.838Z,1.00
2023-01-09T05:18:57.292Z,1.00
2023-01-09T05:19:23.316Z,1.00
2023-01-09T05:19:46.028Z,1.00
2023-01-09T05:20:10.313Z,1.00
2023-01-09T05:20:33.055Z,1.00
2023-01-09T05:20:58.257Z,1.00
2023-01-09T05:21:20.942Z,1.00
2023-01-09T05:21:45.979Z,1.00
2023-01-09T05:22:08.759Z,1.00
2023-01-09T05:22:31.638Z,1.00
2023-01-09T05:22:54.352Z,1.00
2023-01-09T05:23:17.232Z,1.00
2023-01-09T05:23:42.339Z,1.00
2023-01-09T05:24:05.549Z,1.00
2023-01-09T05:24:31.235Z,1.00
2023-01-09T05:24:53.917Z,1.00
2023-01-09T05:25:16.653Z,1.00
2023-01-09T05:25:39.362Z,1.00
2023-01-09T05:26:04.279Z,1.00
2023-01-09T05:26:27.052Z,1.00
2023-01-09T05:26:49.884Z,1.00
2023-01-09T05:27:14.991Z,1.00
2023-01-09T05:27:37.798Z,1.00
2023-01-09T05:28:03.054Z,1.00
2023-01-09T05:28:25.784Z,1.00
2023-01-09T05:28:48.472Z,1.00
2023-01-09T05:29:13.436Z,1.00
2023-01-09T05:29:38.658Z,1.00